x

East Gulf - 208 Mn West Of Naples, Fl (42003) Wave Buoy

7:50am - Fri 19th Dec 2014 All times are EST. -5 hours from GMT.

  • Sig Wave height 1.3ft
  • Swell Direction
  • Peak Period 7s
  • Average Period 5s
  • Wind
    11mph, 13mph gusts
  • Sea Temp 76°f
  • Air Temp 72°f
  • Sea Pressure 1018.4mb
  • East Gulf - 208 Mn West Of Naples, Fl
  • East Gulf - 208 Mn West Of Naples, Fl

More Historic Weather Station data

Upgrade to MSW Pro to gain access to the past 30 days of data for over 8000 Wavebouys and Weather Stations around the globe.

Join Pro

Comparision Forecast

View Surf forecast
   
Fri 12/19 7:50am 1.3ft 7s 5s 11 13 mph 1018.4mb 76f 72f
6:50am 1.6ft 7s 5s 9 11 mph 1018mb 76f 71f
5:50am 1.6ft 7s 5s 11
mph
1017.7mb 76f 72f
4:50am 1.3ft 7s 5s 9 11 mph 1017.9mb 76f 72f
3:50am 1.3ft 7s 5s 7 9 mph 1018.3mb 76f 72f
2:50am 1.3ft 7s 4s 7 9 mph 1018.8mb 76f 72f
1:50am 1.3ft 7s 4s 7 9 mph 1019.1mb 76f 72f
12:50am 1.3ft 8s 4s 7 11 mph 1019.4mb 76f 72f
Thu 12/18 11:50pm 1.6ft 7s 4s 9 11 mph 1019.8mb 76f 72f
10:50pm 1.6ft 7s 4s 9 11 mph 1019.6mb 76f 73f
9:50pm 1.6ft 7s 4s 9 11 mph 1019.5mb 76f 73f
8:50pm 1.6ft 8s 5s 13 16 mph 1019mb 76f 73f
7:50pm 1.6ft 7s 6s 11 13 mph 1019mb 76f 73f
6:50pm 1.6ft 8s 6s 9 11 mph 1018.8mb 76f 73f
5:50pm 1.6ft 7s 6s 9 11 mph 1018.9mb 77f 73f
4:50pm 1.3ft 7s 5s 7 9 mph 1018.6mb 77f 73f
3:50pm 1.6ft 7s 5s 7
mph
1018.4mb 77f 73f
2:50pm 2ft 7s 6s 4 7 mph 1018.8mb 77f 73f
1:50pm 1.6ft 6s 5s 7 9 mph 1019.1mb 77f 73f
12:50pm 2ft 8s 6s 7
mph
1020.3mb 77f 73f
11:50am 2.5ft 8s 6s 2 4 mph 1021.6mb 77f 73f
10:50am 2ft 8s 6s 2 4 mph 1022.1mb 76f 74f
9:50am 2ft 7s 6s 9 11 mph 1021.2mb 76f 73f
8:50am 2ft 7s 6s 7 9 mph 1021mb 76f 73f
7:50am 2ft 8s 6s 7 9 mph 1020.6mb 76f 72f
6:50am 1.6ft 8s 5s 4 7 mph 1020.3mb 76f 71f
5:50am 1.6ft 8s 5s 7 9 mph 1019.8mb 75f 71f
4:50am 1.6ft 8s 5s 4 7 mph 1019.7mb 76f 71f
3:50am 1.6ft 5s 5s 4 7 mph 1020mb 75f 71f
2:50am 1.3ft 5s 5s 4 7 mph 1020.5mb 74f 71f
1:50am 1.6ft 5s 5s 4 9 mph 1020.7mb 75f 71f
12:50am 1.6ft 5s 5s 9 11 mph 1020.8mb 74f 72f
Wed 12/17 11:50pm 1.6ft 6s 5s 9 11 mph 1021.5mb 74f 72f
10:50pm 1.6ft 6s 5s 9 11 mph 1021.7mb 75f 72f
9:50pm 1.6ft 6s 5s 7 9 mph 1021.6mb 76f 72f
8:50pm 1.6ft 6s 5s 4 7 mph 1021.1mb 76f 72f
7:50pm 1.6ft 5s 5s 4 7 mph 1020.5mb 76f 72f
6:50pm 2ft 6s 5s 4 7 mph 1020.1mb 76f 72f
5:50pm 1.6ft 6s 5s 7 9 mph 1019.7mb 76f 72f
4:50pm 1.6ft 6s 4s 7 9 mph 1019.8mb 76f 73f
3:50pm 2ft 5s 4s 7 9 mph 1019.6mb 75f 73f
2:50pm 1.6ft 5s 4s 4 7 mph 1020.1mb 75f 72f
1:50pm 2ft 6s 4s 7 9 mph 1020.6mb 76f 73f
12:50pm 2ft 7s 4s 7 11 mph 1021.6mb 76f 73f
11:50am 2ft 5s 4s 9 13 mph 1022.8mb 76f 73f
10:50am 1.6ft 6s 4s 4 7 mph 1023.4mb 76f 72f
9:50am 1.6ft 5s 5s 7 13 mph 1023.1mb 75f 73f
8:50am 1.6ft 6s 5s 11 13 mph 1022.6mb 75f 73f
7:50am 1.3ft 6s 5s 2 4 mph 1022.4mb 74f 74f
6:50am 1.3ft 6s 5s 4
mph
1021.7mb 74f 73f
5:50am 1.3ft 6s 5s 4 7 mph 1021.1mb 74f 73f
4:50am 1.3ft 6s 5s 4 7 mph 1021.2mb 75f 73f
3:50am 1ft 7s 5s 7
mph
1021.4mb 75f 73f
2:50am 1ft 6s 5s 4 7 mph 1021.4mb 75f 73f
1:50am 1ft 6s 5s 2 4 mph 1021.7mb 75f 73f
12:50am 1ft 6s 5s 4 7 mph 1022.3mb 74f 72f
Tue 12/16 11:50pm 1ft 7s 5s 7
mph
1022.8mb 75f 72f
10:50pm 1ft 6s 5s 4 7 mph 1023.1mb 76f 72f
9:50pm 1ft 6s 5s 4 7 mph 1022.9mb 76f 72f
8:50pm 1ft 7s 5s 2
mph
1022.8mb 76f 71f
7:50pm 1ft 7s 5s  -  2 mph 1022.6mb 76f 71f
6:50pm 1ft 7s 5s 2 4 mph 1022.1mb 76f 71f
5:50pm 1ft 6s 5s 2
mph
1021.7mb 76f 71f
4:50pm 1ft 6s 5s 2
mph
1021.3mb 76f 72f
3:50pm 1ft 6s 5s 4 7 mph 1021.2mb 76f 72f
2:50pm 1ft 6s 5s 2 4 mph 1021.3mb 76f 71f
1:50pm 1ft 7s 5s 2 4 mph 1021.6mb 75f 73f
12:50pm 1ft 6s 4s 2 4 mph 1022.2mb 75f 71f
11:50am 1ft 5s 5s 2
mph
1022.9mb 76f 71f
10:50am 1ft 6s 5s  -  2 mph 1023.5mb 75f 71f
9:50am 1ft 6s 5s  -  2 mph 1023.2mb 76f 71f
8:50am 1ft 6s 5s 2
mph
1022.6mb 75f 72f
6:50am 1ft 6s 5s  -  4 mph 1021.7mb 75f 69f
5:50am 1ft 6s 5s 2 4 mph 1021.1mb 75f 69f
4:50am 1ft 6s 5s 4 7 mph 1020.9mb 76f 69f
3:50am 1ft 7s 5s  -  2 mph 1020.8mb 76f 69f
2:50am 1ft 6s 5s 2 4 mph 1020.7mb 75f 69f
1:50am 1ft 7s 5s 7 9 mph 1020.5mb 75f 69f
12:50am 1ft 7s 5s 7 9 mph 1020.4mb 74f 69f
Mon 12/15 11:50pm 1ft 7s 5s 7 9 mph 1020.5mb 74f 69f
10:50pm 1ft 7s 5s 7 9 mph 1020.7mb 74f 69f
9:50pm 1ft 7s 5s 7 9 mph 1020.5mb 75f 69f
8:50pm 1ft 7s 5s 7 9 mph 1020.2mb 75f 70f
7:50pm 1ft 7s 5s 7 9 mph 1019.8mb 75f 70f
6:50pm 1ft 5s 5s 7 11 mph 1019.2mb 76f 69f
5:50pm 1ft 7s 5s 7 9 mph 1018.8mb 76f 69f
4:50pm 1.3ft 5s 5s 4 7 mph 1018.4mb 76f 70f
3:50pm 1ft 5s 5s 4 7 mph 1018mb 76f 69f
2:50pm 1.3ft 6s 5s 4 7 mph 1018.2mb 76f 69f